Time;durP1;ratioP1;P1;durP2;ratioP2;P2;SDS_P1;SDS_P2;PMS_P1;PMS_P2;Temp;Humidity;BMP_temperature;BMP_pressure;BME280_temperature;BME280_humidity;BME280_pressure;Samples;Min_cycle;Max_cycle;Signal;HPM_P1;HPM_P2
2021/04/13 00:00:29;;;;;;;5.43;4.63;;;1.50;99.90;;;;;;5035686;28;20435;-87
2021/04/13 00:02:58;;;;;;;10.27;4.77;;;1.50;99.90;;;;;;5034993;28;20462;-87
2021/04/13 00:05:39;;;;;;;4.50;4.13;;;1.40;99.90;;;;;;5035554;28;20449;-87
2021/04/13 00:08:10;;;;;;;5.13;4.50;;;1.40;99.90;;;;;;5035509;28;20414;-87
2021/04/13 00:10:41;;;;;;;5.50;5.00;;;1.50;99.90;;;;;;5035791;28;20458;-87
2021/04/13 00:13:08;;;;;;;6.20;5.10;;;1.50;99.90;;;;;;5035743;28;20446;-87
2021/04/13 00:15:38;;;;;;;5.77;5.20;;;1.50;99.90;;;;;;5036451;28;20813;-87
2021/04/13 00:18:06;;;;;;;6.13;5.23;;;1.50;99.90;;;;;;5035835;28;20457;-87
2021/04/13 00:20:38;;;;;;;7.07;5.90;;;1.50;99.90;;;;;;5035649;28;20421;-87
2021/04/13 00:23:05;;;;;;;6.97;5.47;;;1.40;99.90;;;;;;5035685;28;20390;-86
2021/04/13 00:25:35;;;;;;;6.37;5.20;;;1.40;99.90;;;;;;5035082;28;20505;-87
2021/04/13 00:28:01;;;;;;;7.40;5.97;;;1.40;99.90;;;;;;5036230;28;20413;-87
2021/04/13 00:30:38;;;;;;;6.27;5.67;;;1.40;99.90;;;;;;5034949;28;20450;-86
2021/04/13 00:33:05;;;;;;;6.47;5.70;;;1.40;99.90;;;;;;5035671;28;20415;-86
2021/04/13 00:35:35;;;;;;;7.60;6.10;;;1.30;99.90;;;;;;5035328;28;20462;-79
2021/04/13 00:38:17;;;;;;;8.73;6.47;;;1.30;99.90;;;;;;5035474;28;20413;-79
2021/04/13 00:40:46;;;;;;;6.60;5.10;;;1.30;99.90;;;;;;5035049;28;20527;-79
2021/04/13 00:43:14;;;;;;;6.13;5.60;;;1.20;99.90;;;;;;5034958;28;20429;-79
2021/04/13 00:45:44;;;;;;;7.20;6.40;;;1.20;99.90;;;;;;5034793;28;20467;-79
2021/04/13 00:48:13;;;;;;;6.30;5.43;;;1.20;99.90;;;;;;5034870;28;20428;-79
2021/04/13 00:50:42;;;;;;;6.27;4.93;;;1.20;99.90;;;;;;5034718;28;20944;-78
2021/04/13 00:53:13;;;;;;;6.43;5.40;;;1.20;99.90;;;;;;5034750;28;20500;-79
2021/04/13 00:55:44;;;;;;;6.13;5.30;;;1.30;99.90;;;;;;5034450;28;20443;-79
2021/04/13 00:58:17;;;;;;;6.80;5.50;;;1.30;99.90;;;;;;5034339;28;20806;-79
2021/04/13 01:00:48;;;;;;;7.50;5.40;;;1.30;99.90;;;;;;5034535;28;20452;-79
2021/04/13 01:03:16;;;;;;;8.40;5.80;;;1.40;99.90;;;;;;5034613;28;20435;-78
2021/04/13 01:05:45;;;;;;;7.60;5.70;;;1.40;99.90;;;;;;5034414;28;20495;-79
2021/04/13 01:08:24;;;;;;;7.87;6.80;;;1.40;99.90;;;;;;5034486;28;20434;-78
2021/04/13 01:10:53;;;;;;;6.83;5.90;;;1.50;99.90;;;;;;5034513;28;20445;-86
2021/04/13 01:13:29;;;;;;;7.03;6.33;;;1.40;99.90;;;;;;5034354;28;20439;-87
2021/04/13 01:15:56;;;;;;;7.57;5.80;;;1.50;99.90;;;;;;5034495;28;20451;-87
2021/04/13 01:18:25;;;;;;;6.63;5.10;;;1.50;99.90;;;;;;5034677;28;20525;-86
2021/04/13 01:20:57;;;;;;;8.43;5.27;;;1.50;99.90;;;;;;5034192;28;20470;-87
2021/04/13 01:23:28;;;;;;;9.20;5.90;;;1.60;99.90;;;;;;5034894;28;20577;-87
2021/04/13 01:25:58;;;;;;;11.60;6.33;;;1.50;99.90;;;;;;5034069;28;20576;-87
2021/04/13 01:28:28;;;;;;;7.80;5.47;;;1.50;99.90;;;;;;5034520;28;20431;-87
2021/04/13 01:30:58;;;;;;;6.40;5.40;;;1.40;99.90;;;;;;5033950;28;20815;-86
2021/04/13 01:33:36;;;;;;;6.67;5.90;;;1.40;99.90;;;;;;5034539;28;20446;-86
2021/04/13 01:36:13;;;;;;;6.30;5.73;;;1.40;99.90;;;;;;5034005;28;20486;-87
2021/04/13 01:38:42;;;;;;;7.60;6.07;;;1.30;99.90;;;;;;5034129;28;20441;-86
2021/04/13 01:41:22;;;;;;;5.83;5.33;;;1.20;99.90;;;;;;5032748;28;20478;-86
2021/04/13 01:43:49;;;;;;;6.67;5.40;;;1.10;99.90;;;;;;5034178;28;20856;-87
2021/04/13 01:46:17;;;;;;;6.30;5.53;;;1.10;99.90;;;;;;5034235;28;20505;-86
2021/04/13 01:48:44;;;;;;;10.60;5.87;;;1.00;99.90;;;;;;5034097;28;20450;-86
2021/04/13 01:51:12;;;;;;;7.83;6.03;;;0.90;99.90;;;;;;5033760;28;20481;-86
2021/04/13 01:53:40;;;;;;;7.30;5.87;;;0.90;99.90;;;;;;5033779;28;20458;-86
2021/04/13 01:56:12;;;;;;;7.03;6.30;;;0.90;99.90;;;;;;5033587;28;20450;-86
2021/04/13 01:58:42;;;;;;;7.07;5.83;;;1.00;99.90;;;;;;5033908;28;20410;-86
2021/04/13 02:01:13;;;;;;;6.27;5.67;;;1.00;99.90;;;;;;5033782;28;20470;-87
2021/04/13 02:03:43;;;;;;;6.30;5.70;;;0.90;99.90;;;;;;5033825;28;20419;-87
2021/04/13 02:06:22;;;;;;;7.23;6.03;;;0.90;99.90;;;;;;5033380;28;21026;-86
2021/04/13 02:08:52;;;;;;;7.10;6.20;;;0.90;99.90;;;;;;5033767;28;20424;-86
2021/04/13 02:11:23;;;;;;;7.40;6.70;;;0.90;99.90;;;;;;5033616;28;20604;-86
2021/04/13 02:13:55;;;;;;;9.83;7.10;;;0.90;99.90;;;;;;5033701;28;20777;-86
2021/04/13 02:16:27;;;;;;;7.20;6.47;;;0.90;99.90;;;;;;5033664;28;20406;-86
2021/04/13 02:18:55;;;;;;;7.90;6.17;;;0.90;99.90;;;;;;5033744;28;20873;-86
2021/04/13 02:21:27;;;;;;;7.53;5.73;;;0.90;99.90;;;;;;5033210;28;20980;-86
2021/04/13 02:23:57;;;;;;;9.00;6.87;;;0.90;99.90;;;;;;5033728;28;20413;-86
2021/04/13 02:26:25;;;;;;;8.53;6.93;;;0.90;99.90;;;;;;5033465;28;20443;-86
2021/04/13 02:28:52;;;;;;;9.40;6.40;;;0.90;99.90;;;;;;5033346;28;20438;-86
2021/04/13 02:31:37;;;;;;;8.53;6.50;;;0.90;99.90;;;;;;5033171;28;20461;-86
2021/04/13 02:34:09;;;;;;;6.80;6.10;;;0.90;99.90;;;;;;5033189;28;20409;-86
2021/04/13 02:36:36;;;;;;;9.40;6.30;;;0.90;99.90;;;;;;5033165;28;20849;-86
2021/04/13 02:39:05;;;;;;;9.00;7.03;;;0.90;99.90;;;;;;5033475;28;21073;-86
2021/04/13 02:41:37;;;;;;;9.93;6.57;;;0.90;99.90;;;;;;5034045;28;20455;-90
2021/04/13 02:44:07;;;;;;;9.40;6.57;;;0.90;99.90;;;;;;5034446;28;20409;-89
2021/04/13 02:46:37;;;;;;;6.93;5.90;;;0.90;99.90;;;;;;5034390;28;20421;-90
2021/04/13 02:49:07;;;;;;;6.80;6.10;;;0.90;99.90;;;;;;5034190;28;20425;-90
2021/04/13 02:51:37;;;;;;;8.27;6.57;;;0.80;99.90;;;;;;5034167;28;20872;-90
2021/04/13 02:54:06;;;;;;;9.27;7.00;;;0.80;99.90;;;;;;5038019;28;20474;-90
2021/04/13 02:56:35;;;;;;;7.50;6.40;;;0.80;99.90;;;;;;5037575;28;20904;-89
2021/04/13 02:59:12;;;;;;;7.80;6.33;;;0.80;99.90;;;;;;5038018;28;20425;-90
2021/04/13 03:01:41;;;;;;;8.40;6.70;;;0.80;99.90;;;;;;5037423;28;20450;-90
2021/04/13 03:04:10;;;;;;;7.03;6.33;;;0.80;99.90;;;;;;5037510;28;20939;-90
2021/04/13 03:06:38;;;;;;;7.20;5.77;;;0.70;99.90;;;;;;5037605;28;20429;-90
2021/04/13 03:09:06;;;;;;;7.53;6.33;;;0.70;99.90;;;;;;5037271;28;20941;-90
2021/04/13 03:11:35;;;;;;;8.77;6.90;;;0.70;99.90;;;;;;5037334;28;20873;-90
2021/04/13 03:14:03;;;;;;;10.67;6.93;;;0.70;99.90;;;;;;5037669;28;20946;-90
2021/04/13 03:16:36;;;;;;;7.33;6.00;;;0.70;99.90;;;;;;5037514;28;20436;-89
2021/04/13 03:19:08;;;;;;;6.43;5.43;;;0.60;99.90;;;;;;5037518;28;20430;-90
2021/04/13 03:21:37;;;;;;;7.67;6.57;;;0.60;99.90;;;;;;5037379;28;20474;-90
2021/04/13 03:24:08;;;;;;;10.47;7.20;;;0.50;99.90;;;;;;5037292;28;20421;-90
2021/04/13 03:26:43;;;;;;;8.13;6.23;;;0.50;99.90;;;;;;5037049;28;20449;-90
2021/04/13 03:29:15;;;;;;;7.33;6.30;;;0.50;99.90;;;;;;5037366;28;20413;-89
2021/04/13 03:31:42;;;;;;;7.93;7.10;;;0.50;99.90;;;;;;5037229;28;20467;-89
2021/04/13 03:34:09;;;;;;;8.30;7.00;;;0.50;99.90;;;;;;5037312;28;20409;-89
2021/04/13 03:36:36;;;;;;;7.00;5.80;;;0.60;99.90;;;;;;5036812;28;20531;-89
2021/04/13 03:39:07;;;;;;;9.87;6.87;;;0.50;99.90;;;;;;5037483;28;20429;-89
2021/04/13 03:41:40;;;;;;;8.70;7.20;;;0.60;99.90;;;;;;5036670;28;20989;-89
2021/04/13 03:44:06;;;;;;;11.27;8.00;;;0.60;99.90;;;;;;5047919;28;20447;-89
2021/04/13 03:46:36;;;;;;;8.13;6.87;;;0.70;99.90;;;;;;5036918;28;20421;-89
2021/04/13 03:49:07;;;;;;;7.67;6.90;;;0.70;99.90;;;;;;5036769;28;20530;-89
2021/04/13 03:51:38;;;;;;;8.17;6.57;;;0.80;99.90;;;;;;5036802;28;20550;-89
2021/04/13 03:54:19;;;;;;;8.37;7.50;;;1.00;99.90;;;;;;5036921;28;20471;-89
2021/04/13 03:56:48;;;;;;;8.30;7.00;;;1.00;99.90;;;;;;5036666;28;20416;-89
2021/04/13 03:59:18;;;;;;;9.47;7.27;;;1.00;99.90;;;;;;5036712;28;20485;-89
2021/04/13 04:01:46;;;;;;;10.33;7.87;;;1.00;99.90;;;;;;5036268;28;20421;-89
2021/04/13 04:04:27;;;;;;;7.40;6.70;;;1.00;99.90;;;;;;5035134;28;20416;-91
2021/04/13 04:06:56;;;;;;;7.90;5.77;;;1.00;99.90;;;;;;5036431;28;20410;-88
2021/04/13 04:09:35;;;;;;;7.63;6.17;;;1.00;99.90;;;;;;5036140;28;20432;-88
2021/04/13 04:12:15;;;;;;;7.07;6.17;;;0.80;99.90;;;;;;5036148;28;20532;-88
2021/04/13 04:14:41;;;;;;;16.10;6.30;;;0.80;99.90;;;;;;5036176;28;20804;-88
2021/04/13 04:17:12;;;;;;;8.20;5.80;;;0.70;99.90;;;;;;5035641;28;20962;-85
2021/04/13 04:19:38;;;;;;;6.40;5.80;;;0.70;99.90;;;;;;5035824;28;20406;-84
2021/04/13 04:22:08;;;;;;;8.17;5.87;;;0.70;99.90;;;;;;5035460;28;20441;-85
2021/04/13 04:24:38;;;;;;;6.07;5.47;;;0.60;99.90;;;;;;5035500;28;20482;-84
2021/04/13 04:27:16;;;;;;;8.90;6.33;;;0.60;99.90;;;;;;5035396;28;20438;-84
2021/04/13 04:29:45;;;;;;;8.33;5.60;;;0.50;99.90;;;;;;5035269;28;20431;-84
2021/04/13 04:32:15;;;;;;;10.20;5.63;;;0.40;99.90;;;;;;5035036;28;20504;-84
2021/04/13 04:34:52;;;;;;;6.93;6.00;;;0.40;99.90;;;;;;5035705;28;20431;-84
2021/04/13 04:37:31;;;;;;;7.50;5.63;;;0.40;99.90;;;;;;5034902;28;20463;-84
2021/04/13 04:40:38;;;;;;;7.20;6.47;;;0.30;99.90;;;;;;5035124;28;20435;-85
2021/04/13 04:43:08;;;;;;;8.20;5.70;;;0.40;99.90;;;;;;5035586;28;20793;-84
2021/04/13 04:45:45;;;;;;;8.07;6.23;;;0.30;99.90;;;;;;5035082;28;20473;-84
2021/04/13 04:48:29;;;;;;;9.77;6.53;;;0.30;99.90;;;;;;5035052;28;20960;-84
2021/04/13 04:50:57;;;;;;;6.70;5.73;;;0.30;99.90;;;;;;5039430;28;20454;-85
2021/04/13 04:53:24;;;;;;;8.63;6.13;;;0.30;99.90;;;;;;5040942;28;20451;-84
2021/04/13 04:55:51;;;;;;;6.23;5.63;;;0.20;99.90;;;;;;5037883;28;20449;-84
2021/04/13 04:58:19;;;;;;;7.90;5.83;;;0.30;99.90;;;;;;5034717;28;20430;-84
2021/04/13 05:00:46;;;;;;;7.50;5.80;;;0.30;99.90;;;;;;5034625;28;20471;-84
2021/04/13 05:03:13;;;;;;;8.30;5.43;;;0.30;99.90;;;;;;5034679;28;20417;-85
2021/04/13 05:05:39;;;;;;;10.43;6.30;;;0.30;99.90;;;;;;5034360;28;20461;-85
2021/04/13 05:08:05;;;;;;;7.60;6.60;;;0.30;99.90;;;;;;5034538;28;20421;-84
2021/04/13 05:10:32;;;;;;;7.00;5.60;;;0.40;99.90;;;;;;5034113;28;20799;-84
2021/04/13 05:12:58;;;;;;;10.50;6.60;;;0.50;99.90;;;;;;5034474;28;20438;-85
2021/04/13 05:15:25;;;;;;;9.93;6.40;;;0.60;99.90;;;;;;5034297;28;20448;-84
2021/04/13 05:17:52;;;;;;;13.13;6.63;;;0.70;99.90;;;;;;5034400;28;20449;-84
2021/04/13 05:20:19;;;;;;;7.93;5.67;;;0.80;99.90;;;;;;5034490;28;20977;-85
2021/04/13 05:22:45;;;;;;;8.50;5.80;;;0.90;99.90;;;;;;5034347;28;20448;-85
2021/04/13 05:25:13;;;;;;;8.73;5.77;;;1.10;99.90;;;;;;5033981;28;20997;-84
2021/04/13 05:27:40;;;;;;;6.70;5.00;;;1.20;99.90;;;;;;5037432;28;20447;-84
2021/04/13 05:30:08;;;;;;;7.77;6.63;;;1.20;99.90;;;;;;5035316;28;20460;-85
2021/04/13 05:32:35;;;;;;;7.60;6.50;;;1.30;99.90;;;;;;5034127;28;20466;-85
2021/04/13 05:35:03;;;;;;;7.97;5.70;;;1.30;99.90;;;;;;5034278;28;21020;-85
2021/04/13 05:37:31;;;;;;;11.27;6.93;;;1.40;99.90;;;;;;5034087;28;20900;-85
2021/04/13 05:39:57;;;;;;;8.30;6.43;;;1.50;99.90;;;;;;5034965;28;20792;-85
2021/04/13 05:42:27;;;;;;;8.60;6.83;;;1.60;99.90;;;;;;5034008;28;20441;-85
2021/04/13 05:44:54;;;;;;;8.77;6.60;;;1.60;99.90;;;;;;5034219;28;20457;-85
2021/04/13 05:47:20;;;;;;;10.83;7.00;;;1.70;99.90;;;;;;5034100;28;20467;-85
2021/04/13 05:49:47;;;;;;;11.27;6.63;;;1.70;99.90;;;;;;5034733;28;20508;-85
2021/04/13 05:52:14;;;;;;;10.00;8.27;;;1.80;99.90;;;;;;5034195;28;20456;-85
2021/04/13 05:54:40;;;;;;;8.43;5.87;;;2.00;99.90;;;;;;5034450;28;20450;-85
2021/04/13 05:57:09;;;;;;;10.50;6.43;;;2.10;99.90;;;;;;5035956;28;20454;-85
2021/04/13 05:59:35;;;;;;;9.30;7.47;;;2.30;99.90;;;;;;5034160;28;20450;-85
2021/04/13 06:02:04;;;;;;;8.03;6.40;;;2.30;99.90;;;;;;5034187;28;20490;-85
2021/04/13 06:04:30;;;;;;;7.33;6.20;;;2.40;99.90;;;;;;5034181;28;20459;-85
2021/04/13 06:06:57;;;;;;;8.77;7.23;;;2.40;99.90;;;;;;5033906;28;20454;-85
2021/04/13 06:09:23;;;;;;;8.73;6.50;;;2.50;99.90;;;;;;5033997;28;20454;-85
2021/04/13 06:11:50;;;;;;;10.00;6.93;;;2.50;99.90;;;;;;5033711;28;20521;-85
2021/04/13 06:14:18;;;;;;;9.90;6.43;;;2.60;99.90;;;;;;5033465;28;20973;-85
2021/04/13 06:16:48;;;;;;;10.70;7.73;;;2.70;99.90;;;;;;5033893;28;20501;-85
2021/04/13 06:19:14;;;;;;;10.17;7.20;;;2.70;99.90;;;;;;5033770;28;20497;-85
2021/04/13 06:21:41;;;;;;;9.17;8.00;;;2.80;99.90;;;;;;5033519;28;20453;-85
2021/04/13 06:24:10;;;;;;;13.23;8.07;;;3.00;99.90;;;;;;5033922;28;20449;-85
2021/04/13 06:26:36;;;;;;;10.43;7.60;;;3.60;99.90;;;;;;5034919;28;20861;-89
2021/04/13 06:29:03;;;;;;;7.60;6.80;;;4.60;99.90;;;;;;5040932;28;20457;-89
2021/04/13 06:31:29;;;;;;;9.80;6.90;;;5.50;99.90;;;;;;5042746;28;20470;-88
2021/04/13 06:33:55;;;;;;;10.03;6.83;;;6.40;99.90;;;;;;5042838;28;20442;-88
2021/04/13 06:36:25;;;;;;;6.83;6.10;;;7.00;99.90;;;;;;5044880;28;20482;-89
2021/04/13 06:38:53;;;;;;;9.07;6.80;;;7.30;99.90;;;;;;5043620;28;20449;-89
2021/04/13 06:41:36;;;;;;;9.97;6.67;;;7.90;99.90;;;;;;5044478;28;20466;-89
2021/04/13 06:44:35;;;;;;;9.50;7.00;;;8.30;99.90;;;;;;5040834;28;20771;-89
2021/04/13 06:47:10;;;;;;;8.50;6.90;;;9.10;98.40;;;;;;5015586;28;20466;-89
2021/04/13 06:49:53;;;;;;;8.70;7.10;;;9.70;95.10;;;;;;5040873;28;20421;-89
2021/04/13 06:52:29;;;;;;;7.73;6.93;;;10.30;93.00;;;;;;5040659;28;20904;-89
2021/04/13 06:55:08;;;;;;;9.80;6.77;;;10.70;90.20;;;;;;5040367;28;20430;-89
2021/04/13 06:58:02;;;;;;;9.80;6.53;;;11.10;90.30;;;;;;5040496;28;20445;-90
2021/04/13 07:00:43;;;;;;;8.50;6.57;;;11.30;88.50;;;;;;5040131;28;20500;-89
2021/04/13 07:03:21;;;;;;;8.70;7.90;;;11.60;86.10;;;;;;5040349;28;20487;-90
2021/04/13 07:05:53;;;;;;;7.40;6.70;;;11.90;79.80;;;;;;5040499;28;20458;-90
2021/04/13 07:08:27;;;;;;;10.33;7.20;;;12.60;74.50;;;;;;5039981;28;20898;-86
2021/04/13 07:10:59;;;;;;;7.90;7.13;;;13.60;71.10;;;;;;5039618;28;20458;-86
2021/04/13 07:13:32;;;;;;;8.93;7.97;;;13.00;66.90;;;;;;5039907;28;20466;-86
2021/04/13 07:16:05;;;;;;;10.20;7.30;;;12.10;69.70;;;;;;5039708;28;20433;-85
2021/04/13 07:18:38;;;;;;;8.60;7.67;;;11.30;70.90;;;;;;5039596;28;20798;-86
2021/04/13 07:21:09;;;;;;;7.77;6.63;;;10.90;73.50;;;;;;5039603;28;20470;-86
2021/04/13 07:23:42;;;;;;;9.20;8.13;;;10.70;72.70;;;;;;5039540;28;20438;-86
2021/04/13 07:26:14;;;;;;;8.10;7.30;;;10.40;74.80;;;;;;5039476;28;20575;-86
2021/04/13 07:28:50;;;;;;;10.40;7.60;;;10.40;75.30;;;;;;5049521;28;20442;-85
2021/04/13 07:31:21;;;;;;;7.23;6.50;;;10.80;75.50;;;;;;5045832;28;20462;-87
2021/04/13 07:33:47;;;;;;;7.70;6.97;;;11.60;72.30;;;;;;5039715;28;20929;-87
2021/04/13 07:36:20;;;;;;;8.27;7.43;;;12.10;67.30;;;;;;5039711;28;20474;-87
2021/04/13 07:38:49;;;;;;;8.07;7.23;;;12.40;65.60;;;;;;5039262;28;20431;-88
2021/04/13 07:41:22;;;;;;;8.47;7.70;;;12.70;65.60;;;;;;5036663;28;20993;-88
2021/04/13 07:43:57;;;;;;;7.73;6.90;;;13.50;64.00;;;;;;5036342;28;20416;-88
2021/04/13 07:46:45;;;;;;;8.03;7.10;;;14.30;60.70;;;;;;5036688;28;20458;-89
2021/04/13 07:49:15;;;;;;;9.10;8.20;;;14.70;57.30;;;;;;5036229;28;20451;-88
2021/04/13 07:51:51;;;;;;;7.93;7.00;;;15.40;55.60;;;;;;5036314;28;20473;-88
2021/04/13 07:54:37;;;;;;;7.23;6.53;;;16.10;54.20;;;;;;5037120;28;20431;-88
2021/04/13 07:57:08;;;;;;;8.07;7.37;;;16.60;52.00;;;;;;5036633;28;20427;-89
2021/04/13 07:59:44;;;;;;;8.63;6.90;;;17.20;50.60;;;;;;5036380;28;20408;-88
2021/04/13 08:02:11;;;;;;;7.87;7.07;;;17.50;48.00;;;;;;5036314;28;20459;-88
2021/04/13 08:04:37;;;;;;;8.57;7.87;;;17.80;47.80;;;;;;5036520;28;20501;-88
2021/04/13 08:07:14;;;;;;;7.73;7.13;;;18.40;44.90;;;;;;5036420;28;20427;-88
2021/04/13 08:09:42;;;;;;;7.23;6.63;;;18.10;45.20;;;;;;5036197;28;20427;-87
2021/04/13 08:12:23;;;;;;;7.80;7.10;;;18.20;45.30;;;;;;5036222;28;20458;-89
2021/04/13 08:15:07;;;;;;;7.50;6.90;;;18.70;44.90;;;;;;5036340;28;20522;-88
2021/04/13 08:17:35;;;;;;;7.57;6.93;;;19.00;42.90;;;;;;5036243;28;20433;-89
2021/04/13 08:20:05;;;;;;;7.83;7.13;;;19.30;44.30;;;;;;5036469;28;20488;-91
2021/04/13 08:22:49;;;;;;;7.00;6.50;;;19.00;43.10;;;;;;5036229;28;20843;-92
2021/04/13 08:25:31;;;;;;;7.80;7.23;;;18.70;43.40;;;;;;5036362;28;20470;-92
2021/04/13 08:28:05;;;;;;;7.10;6.50;;;18.10;43.30;;;;;;5036085;28;20426;-91
2021/04/13 08:30:45;;;;;;;6.80;6.30;;;17.20;46.50;;;;;;5036509;28;20483;-91
2021/04/13 08:33:25;;;;;;;6.73;6.17;;;16.60;45.70;;;;;;5036348;28;20431;-90
2021/04/13 08:36:06;;;;;;;7.00;6.40;;;15.80;46.10;;;;;;5035917;28;20477;-90
2021/04/13 08:38:54;;;;;;;8.23;6.80;;;14.80;48.20;;;;;;5036147;28;20549;-90
2021/04/13 08:41:34;;;;;;;7.80;7.10;;;13.80;49.60;;;;;;5035944;28;20558;-90
2021/04/13 08:44:12;;;;;;;6.20;5.63;;;13.20;50.90;;;;;;5036199;28;20435;-90
2021/04/13 08:46:48;;;;;;;8.10;6.90;;;12.90;52.30;;;;;;5036030;28;20470;-90
2021/04/13 08:49:33;;;;;;;5.93;5.40;;;13.90;51.90;;;;;;5036113;28;20430;-90
2021/04/13 08:52:15;;;;;;;5.20;4.80;;;15.00;49.80;;;;;;5036101;28;20454;-90
2021/04/13 08:54:44;;;;;;;5.23;4.73;;;15.70;47.90;;;;;;5036394;28;20478;-90
2021/04/13 08:57:31;;;;;;;5.10;4.70;;;16.80;47.80;;;;;;5035812;28;20473;-90
2021/04/13 08:59:59;;;;;;;4.97;4.57;;;16.90;44.10;;;;;;5035711;28;20442;-90
2021/04/13 09:02:28;;;;;;;5.10;4.70;;;16.50;45.30;;;;;;5035762;28;20477;-90
2021/04/13 09:05:06;;;;;;;5.77;5.27;;;15.80;44.30;;;;;;5035446;28;20546;-90
2021/04/13 09:07:42;;;;;;;5.83;4.80;;;14.60;46.30;;;;;;5035906;28;20932;-90
2021/04/13 09:10:16;;;;;;;5.03;4.63;;;13.30;47.70;;;;;;5035541;28;20431;-90
2021/04/13 09:12:51;;;;;;;5.37;4.87;;;12.80;48.10;;;;;;5035387;28;20451;-88
2021/04/13 09:15:24;;;;;;;5.47;5.00;;;12.80;49.00;;;;;;5035983;28;20447;-89
2021/04/13 09:18:01;;;;;;;6.20;5.63;;;12.70;49.20;;;;;;5035371;28;20506;-89
2021/04/13 09:20:36;;;;;;;5.87;5.10;;;12.40;50.30;;;;;;5035271;28;20491;-89
2021/04/13 09:23:12;;;;;;;6.80;6.20;;;12.30;51.00;;;;;;5034920;28;20437;-89
2021/04/13 09:25:42;;;;;;;6.00;5.50;;;12.40;52.40;;;;;;5034576;28;20540;-87
2021/04/13 09:28:12;;;;;;;5.47;5.07;;;13.10;50.90;;;;;;5034343;28;20470;-86
2021/04/13 09:30:40;;;;;;;5.77;5.30;;;13.50;50.50;;;;;;5035121;28;20864;-87
2021/04/13 09:33:12;;;;;;;6.10;5.63;;;13.50;48.20;;;;;;5034607;28;20458;-87
2021/04/13 09:36:00;;;;;;;5.50;5.00;;;12.80;45.90;;;;;;5034291;28;20497;-86
2021/04/13 09:39:01;;;;;;;5.50;5.10;;;12.00;47.30;;;;;;5033992;28;20910;-87
2021/04/13 09:41:44;;;;;;;7.70;5.77;;;11.10;48.50;;;;;;5033724;28;21004;-86
2021/04/13 09:44:32;;;;;;;7.80;6.50;;;10.40;50.50;;;;;;5034382;28;20754;-87
2021/04/13 09:47:06;;;;;;;7.73;6.37;;;10.30;52.40;;;;;;5034065;28;20431;-87
2021/04/13 09:49:48;;;;;;;7.73;6.83;;;10.90;52.00;;;;;;5033804;28;20469;-86
2021/04/13 09:52:41;;;;;;;7.17;6.50;;;11.20;52.00;;;;;;5034109;28;20462;-87
2021/04/13 09:55:24;;;;;;;7.27;6.57;;;11.60;50.70;;;;;;5033949;28;20430;-87
2021/04/13 09:58:13;;;;;;;7.87;7.10;;;11.40;50.50;;;;;;5033986;28;20446;-87
2021/04/13 10:01:09;;;;;;;8.63;6.50;;;11.00;51.80;;;;;;5033841;28;20443;-87
2021/04/13 10:04:00;;;;;;;7.30;6.60;;;10.50;51.60;;;;;;5020659;28;20461;-86
2021/04/13 10:06:31;;;;;;;8.13;6.30;;;10.00;49.50;;;;;;5033525;28;20993;-87
2021/04/13 10:09:06;;;;;;;6.73;6.03;;;10.10;50.70;;;;;;5033959;28;20474;-86
2021/04/13 10:12:01;;;;;;;8.27;7.00;;;11.30;51.80;;;;;;5033578;28;20481;-86
2021/04/13 10:14:59;;;;;;;9.90;6.87;;;13.10;48.60;;;;;;5033734;28;20416;-87
2021/04/13 10:17:38;;;;;;;7.63;6.10;;;14.50;46.20;;;;;;5033823;28;20435;-87
2021/04/13 10:20:29;;;;;;;7.57;6.80;;;14.30;43.90;;;;;;5033478;28;20435;-87
2021/04/13 10:23:21;;;;;;;7.63;6.93;;;13.60;46.00;;;;;;5030276;28;20797;-87
2021/04/13 10:26:35;;;;;;;7.47;6.63;;;12.40;49.10;;;;;;5025615;28;20478;-87
2021/04/13 10:29:35;;;;;;;7.07;6.37;;;11.60;50.30;;;;;;4997659;28;20453;-87
2021/04/13 10:32:37;;;;;;;6.50;5.90;;;11.00;49.60;;;;;;5033618;28;20455;-87
2021/04/13 10:35:23;;;;;;;7.00;5.77;;;10.40;49.90;;;;;;5028416;28;20477;-86
2021/04/13 10:38:26;;;;;;;7.10;6.27;;;10.50;52.00;;;;;;5033866;28;20415;-87
2021/04/13 10:41:40;;;;;;;7.07;6.37;;;11.20;49.30;;;;;;5033260;28;20484;-86
2021/04/13 10:44:45;;;;;;;8.43;6.40;;;11.30;49.80;;;;;;5033847;28;20450;-86
2021/04/13 10:47:41;;;;;;;6.60;6.00;;;11.60;50.20;;;;;;5033864;28;20898;-86
2021/04/13 10:50:27;;;;;;;5.40;4.90;;;11.60;48.10;;;;;;5003276;28;20453;-87
2021/04/13 10:53:19;;;;;;;5.63;5.13;;;11.30;47.30;;;;;;5033661;28;20447;-86
2021/04/13 10:56:20;;;;;;;8.20;4.90;;;11.00;47.40;;;;;;5033088;28;20933;-86
2021/04/13 10:59:33;;;;;;;6.27;5.13;;;10.90;46.70;;;;;;5029987;28;20461;-87
2021/04/13 11:02:06;;;;;;;5.40;4.90;;;12.50;46.70;;;;;;5033422;28;20512;-87
2021/04/13 11:05:14;;;;;;;4.80;4.30;;;13.90;43.30;;;;;;5033481;28;20427;-87
2021/04/13 11:08:15;;;;;;;4.90;4.50;;;14.10;41.80;;;;;;5025842;28;20446;-87
2021/04/13 11:11:17;;;;;;;5.50;5.00;;;14.30;40.60;;;;;;5033109;28;20530;-85
2021/04/13 11:14:10;;;;;;;5.43;4.93;;;13.40;41.80;;;;;;5034760;28;20759;-86
2021/04/13 11:17:05;;;;;;;6.33;5.73;;;12.40;43.70;;;;;;5036939;28;20430;-87
2021/04/13 11:19:39;;;;;;;8.47;5.90;;;12.00;47.00;;;;;;5036566;28;20438;-86
2021/04/13 11:22:35;;;;;;;6.70;5.23;;;11.80;47.30;;;;;;5037177;28;20474;-86
2021/04/13 11:25:52;;;;;;;5.90;5.30;;;11.80;48.10;;;;;;5036742;28;20439;-86
2021/04/13 11:28:56;;;;;;;5.70;5.20;;;11.80;47.30;;;;;;5011276;28;20477;-86
2021/04/13 11:31:53;;;;;;;4.50;3.80;;;11.80;47.90;;;;;;5036252;28;20985;-86
2021/04/13 11:34:47;;;;;;;4.17;3.77;;;12.00;41.60;;;;;;5036738;28;20435;-86
2021/04/13 11:37:47;;;;;;;3.50;3.30;;;12.20;40.30;;;;;;5036289;28;20478;-86
2021/04/13 11:40:35;;;;;;;4.47;3.60;;;12.10;37.10;;;;;;5036100;28;20435;-85
2021/04/13 11:43:02;;;;;;;4.27;3.97;;;11.60;40.30;;;;;;5036079;28;20438;-86
2021/04/13 11:45:41;;;;;;;3.47;3.17;;;11.60;38.10;;;;;;5036544;28;20481;-87
2021/04/13 11:48:18;;;;;;;4.13;3.73;;;11.50;39.60;;;;;;5036537;28;20438;-86
2021/04/13 11:50:56;;;;;;;4.00;3.60;;;11.10;39.60;;;;;;5038217;28;20462;-85
2021/04/13 11:53:36;;;;;;;3.60;3.30;;;10.70;38.30;;;;;;5036741;28;20485;-86
2021/04/13 11:56:04;;;;;;;6.30;4.30;;;10.20;40.10;;;;;;5036118;28;20447;-86
2021/04/13 11:58:34;;;;;;;5.50;4.20;;;9.80;40.60;;;;;;5036096;28;20431;-86
2021/04/13 12:01:35;;;;;;;4.90;4.40;;;9.70;42.70;;;;;;5035932;28;20471;-86
2021/04/13 12:04:05;;;;;;;5.17;4.50;;;9.80;43.90;;;;;;5035716;28;20849;-85
2021/04/13 12:06:57;;;;;;;5.37;3.73;;;9.80;42.10;;;;;;5035869;28;20474;-85
2021/04/13 12:09:42;;;;;;;5.37;4.60;;;10.00;41.30;;;;;;5036484;28;20450;-86
2021/04/13 12:12:45;;;;;;;5.63;4.73;;;10.00;43.40;;;;;;5035819;28;20474;-86
2021/04/13 12:15:35;;;;;;;4.20;3.80;;;10.10;45.00;;;;;;5035912;28;20453;-86
2021/04/13 12:18:22;;;;;;;5.43;4.83;;;10.30;45.20;;;;;;5035865;28;20477;-86
2021/04/13 12:20:50;;;;;;;7.00;5.30;;;10.40;47.30;;;;;;5035170;28;20813;-86
2021/04/13 12:23:48;;;;;;;6.10;5.50;;;10.40;49.40;;;;;;5035854;28;20463;-85
2021/04/13 12:26:30;;;;;;;6.10;5.50;;;10.40;49.60;;;;;;5034919;28;20475;-86
2021/04/13 12:28:57;;;;;;;6.07;4.77;;;10.50;47.90;;;;;;5035904;28;20837;-86
2021/04/13 12:31:25;;;;;;;4.93;4.40;;;10.40;49.70;;;;;;5035438;28;20827;-86
2021/04/13 12:34:03;;;;;;;4.50;4.10;;;10.30;47.60;;;;;;5034989;28;20446;-85
2021/04/13 12:36:53;;;;;;;4.20;3.80;;;10.10;47.90;;;;;;5035030;28;20843;-86
2021/04/13 12:39:51;;;;;;;3.73;3.30;;;9.90;47.50;;;;;;5035246;28;20910;-86
2021/04/13 12:42:48;;;;;;;3.20;3.00;;;9.80;47.50;;;;;;5035300;28;20493;-87
2021/04/13 12:45:29;;;;;;;4.73;3.50;;;9.90;45.90;;;;;;5034844;28;20985;-85
2021/04/13 12:47:59;;;;;;;2.97;2.77;;;10.00;42.30;;;;;;5035132;28;20439;-85
2021/04/13 12:50:30;;;;;;;2.50;2.30;;;10.00;40.70;;;;;;5034994;28;20442;-85
2021/04/13 12:52:57;;;;;;;3.33;2.40;;;10.10;42.50;;;;;;5034742;28;20914;-86
2021/04/13 12:55:26;;;;;;;3.73;2.33;;;10.10;42.80;;;;;;5034989;28;20427;-85
2021/04/13 12:57:55;;;;;;;3.47;2.93;;;10.30;41.80;;;;;;5034961;28;20438;-86
2021/04/13 13:00:23;;;;;;;3.53;3.23;;;10.30;42.30;;;;;;5035608;28;20454;-88
2021/04/13 13:02:50;;;;;;;4.70;4.30;;;10.30;42.50;;;;;;5034631;28;21085;-86
2021/04/13 13:05:22;;;;;;;5.80;3.47;;;10.10;41.80;;;;;;5034822;28;20482;-86
2021/04/13 13:07:55;;;;;;;7.33;3.87;;;9.90;43.70;;;;;;5034724;28;20438;-86
2021/04/13 13:10:28;;;;;;;4.20;3.87;;;9.80;45.30;;;;;;5034661;28;20432;-87
2021/04/13 13:13:00;;;;;;;6.57;3.93;;;9.60;44.70;;;;;;5034848;28;20454;-86
2021/04/13 13:15:31;;;;;;;3.80;3.57;;;9.50;44.70;;;;;;5034482;28;20445;-86
2021/04/13 13:18:13;;;;;;;3.00;2.70;;;9.20;42.20;;;;;;5034436;28;20443;-84
2021/04/13 13:20:39;;;;;;;3.80;3.50;;;9.00;43.10;;;;;;5034466;28;20410;-85
2021/04/13 13:23:06;;;;;;;3.77;3.47;;;8.70;43.00;;;;;;5034431;28;20435;-86
2021/04/13 13:25:35;;;;;;;4.50;3.77;;;8.60;44.70;;;;;;5034269;28;20974;-86
2021/04/13 13:28:06;;;;;;;3.00;2.80;;;8.50;45.10;;;;;;5034138;28;21025;-85
2021/04/13 13:30:33;;;;;;;2.80;2.60;;;8.50;43.20;;;;;;5034160;28;20482;-86
2021/04/13 13:33:00;;;;;;;4.43;4.03;;;8.50;44.70;;;;;;5034315;28;20441;-86
2021/04/13 13:35:28;;;;;;;7.60;3.93;;;8.60;51.30;;;;;;5034063;28;20431;-84